sensor_id;sensor_type;location;lat;lon;timestamp;pressure;altitude;pressure_sealevel;temperature;humidity
80781;BME280;70341;56.408;10.874;2024-03-06T00:01:31;102585.23;;;19.66;36.42
80781;BME280;70341;56.408;10.874;2024-03-06T00:04:03;102584.56;;;19.65;36.47
80781;BME280;70341;56.408;10.874;2024-03-06T00:06:32;102581.34;;;19.64;36.48
80781;BME280;70341;56.408;10.874;2024-03-06T00:09:02;102587.90;;;19.63;36.41
80781;BME280;70341;56.408;10.874;2024-03-06T00:11:30;102587.39;;;19.62;36.40
80781;BME280;70341;56.408;10.874;2024-03-06T00:14:00;102588.64;;;19.62;36.45
80781;BME280;70341;56.408;10.874;2024-03-06T00:16:28;102587.59;;;19.62;36.42
80781;BME280;70341;56.408;10.874;2024-03-06T00:18:58;102587.08;;;19.61;36.50
80781;BME280;70341;56.408;10.874;2024-03-06T00:21:26;102588.91;;;19.60;36.32
80781;BME280;70341;56.408;10.874;2024-03-06T00:23:58;102588.39;;;19.60;36.44
80781;BME280;70341;56.408;10.874;2024-03-06T00:26:27;102586.41;;;19.60;36.38
80781;BME280;70341;56.408;10.874;2024-03-06T00:28:57;102583.76;;;19.59;36.47
80781;BME280;70341;56.408;10.874;2024-03-06T00:31:27;102580.00;;;19.59;36.42
80781;BME280;70341;56.408;10.874;2024-03-06T00:33:57;102578.41;;;19.58;36.44
80781;BME280;70341;56.408;10.874;2024-03-06T00:36:27;102580.98;;;19.57;36.52
80781;BME280;70341;56.408;10.874;2024-03-06T00:38:58;102581.38;;;19.56;36.44
80781;BME280;70341;56.408;10.874;2024-03-06T00:41:27;102584.84;;;19.55;36.51
80781;BME280;70341;56.408;10.874;2024-03-06T00:43:57;102585.23;;;19.55;36.54
80781;BME280;70341;56.408;10.874;2024-03-06T00:46:28;102583.09;;;19.54;36.54
80781;BME280;70341;56.408;10.874;2024-03-06T00:48:58;102582.76;;;19.53;36.52
80781;BME280;70341;56.408;10.874;2024-03-06T00:51:28;102582.98;;;19.52;36.63
80781;BME280;70341;56.408;10.874;2024-03-06T00:54:12;102584.13;;;19.51;36.65
80781;BME280;70341;56.408;10.874;2024-03-06T00:56:40;102582.90;;;19.50;36.74
80781;BME280;70341;56.408;10.874;2024-03-06T00:59:11;102586.71;;;19.49;36.68
80781;BME280;70341;56.408;10.874;2024-03-06T01:01:40;102582.42;;;19.49;36.75
80781;BME280;70341;56.408;10.874;2024-03-06T01:04:12;102582.29;;;19.48;36.64
80781;BME280;70341;56.408;10.874;2024-03-06T01:06:41;102587.60;;;19.46;36.75
80781;BME280;70341;56.408;10.874;2024-03-06T01:09:12;102584.70;;;19.46;36.74
80781;BME280;70341;56.408;10.874;2024-03-06T01:11:40;102583.73;;;19.44;36.73
80781;BME280;70341;56.408;10.874;2024-03-06T01:14:10;102586.80;;;19.44;36.66
80781;BME280;70341;56.408;10.874;2024-03-06T01:16:41;102586.46;;;19.43;36.71
80781;BME280;70341;56.408;10.874;2024-03-06T01:19:12;102583.27;;;19.42;36.80
80781;BME280;70341;56.408;10.874;2024-03-06T01:21:41;102580.41;;;19.42;36.77
80781;BME280;70341;56.408;10.874;2024-03-06T01:24:11;102587.09;;;19.42;36.91
80781;BME280;70341;56.408;10.874;2024-03-06T01:26:41;102584.27;;;19.40;36.91
80781;BME280;70341;56.408;10.874;2024-03-06T01:29:12;102583.39;;;19.39;37.05
80781;BME280;70341;56.408;10.874;2024-03-06T01:31:42;102589.91;;;19.39;37.07
80781;BME280;70341;56.408;10.874;2024-03-06T01:34:12;102589.92;;;19.38;37.11
80781;BME280;70341;56.408;10.874;2024-03-06T01:36:41;102592.27;;;19.38;37.18
80781;BME280;70341;56.408;10.874;2024-03-06T01:39:12;102594.30;;;19.38;37.17
80781;BME280;70341;56.408;10.874;2024-03-06T01:41:49;102597.40;;;19.37;37.19
80781;BME280;70341;56.408;10.874;2024-03-06T01:44:19;102601.87;;;19.38;37.28
80781;BME280;70341;56.408;10.874;2024-03-06T01:46:47;102603.32;;;19.37;37.50
80781;BME280;70341;56.408;10.874;2024-03-06T01:49:18;102606.39;;;19.37;37.39
80781;BME280;70341;56.408;10.874;2024-03-06T01:52:02;102604.98;;;19.37;37.33
80781;BME280;70341;56.408;10.874;2024-03-06T01:54:32;102606.05;;;19.37;37.45
80781;BME280;70341;56.408;10.874;2024-03-06T01:57:05;102601.39;;;19.36;37.46
80781;BME280;70341;56.408;10.874;2024-03-06T01:59:40;102602.30;;;19.36;37.63
80781;BME280;70341;56.408;10.874;2024-03-06T02:02:12;102606.64;;;19.36;37.69
80781;BME280;70341;56.408;10.874;2024-03-06T02:04:43;102609.53;;;19.36;37.57
80781;BME280;70341;56.408;10.874;2024-03-06T02:07:15;102608.69;;;19.35;37.71
80781;BME280;70341;56.408;10.874;2024-03-06T02:09:46;102609.63;;;19.34;37.60
80781;BME280;70341;56.408;10.874;2024-03-06T02:12:14;102610.05;;;19.33;37.71
80781;BME280;70341;56.408;10.874;2024-03-06T02:14:44;102605.35;;;19.33;37.76
80781;BME280;70341;56.408;10.874;2024-03-06T02:17:12;102605.56;;;19.32;37.79
80781;BME280;70341;56.408;10.874;2024-03-06T02:19:44;102602.20;;;19.31;37.77
80781;BME280;70341;56.408;10.874;2024-03-06T02:22:14;102600.81;;;19.30;37.90
80781;BME280;70341;56.408;10.874;2024-03-06T02:24:48;102598.89;;;19.29;37.90
80781;BME280;70341;56.408;10.874;2024-03-06T02:27:17;102600.88;;;19.29;37.90
80781;BME280;70341;56.408;10.874;2024-03-06T02:29:48;102599.66;;;19.28;37.91
80781;BME280;70341;56.408;10.874;2024-03-06T02:32:16;102600.23;;;19.27;38.01
80781;BME280;70341;56.408;10.874;2024-03-06T02:34:47;102600.08;;;19.26;37.96
80781;BME280;70341;56.408;10.874;2024-03-06T02:37:16;102595.99;;;19.25;38.15
80781;BME280;70341;56.408;10.874;2024-03-06T02:39:45;102597.27;;;19.24;38.11
80781;BME280;70341;56.408;10.874;2024-03-06T02:42:15;102596.96;;;19.23;38.24
80781;BME280;70341;56.408;10.874;2024-03-06T02:44:45;102594.50;;;19.22;38.14
80781;BME280;70341;56.408;10.874;2024-03-06T02:47:14;102592.02;;;19.21;38.28
80781;BME280;70341;56.408;10.874;2024-03-06T02:49:45;102591.14;;;19.21;38.27
80781;BME280;70341;56.408;10.874;2024-03-06T02:52:16;102588.25;;;19.21;38.35
80781;BME280;70341;56.408;10.874;2024-03-06T02:54:48;102590.12;;;19.20;38.35
80781;BME280;70341;56.408;10.874;2024-03-06T02:57:16;102586.87;;;19.20;38.34
80781;BME280;70341;56.408;10.874;2024-03-06T02:59:47;102585.44;;;19.20;38.38
80781;BME280;70341;56.408;10.874;2024-03-06T03:02:15;102585.48;;;19.19;38.46
80781;BME280;70341;56.408;10.874;2024-03-06T03:04:46;102582.14;;;19.17;38.37
80781;BME280;70341;56.408;10.874;2024-03-06T03:07:16;102585.35;;;19.18;38.42
80781;BME280;70341;56.408;10.874;2024-03-06T03:09:47;102584.31;;;19.17;38.56
80781;BME280;70341;56.408;10.874;2024-03-06T03:12:16;102587.92;;;19.17;38.50
80781;BME280;70341;56.408;10.874;2024-03-06T03:14:46;102589.23;;;19.15;38.48
80781;BME280;70341;56.408;10.874;2024-03-06T03:17:21;102589.63;;;19.15;38.77
80781;BME280;70341;56.408;10.874;2024-03-06T03:19:52;102587.13;;;19.14;38.61
80781;BME280;70341;56.408;10.874;2024-03-06T03:22:20;102588.57;;;19.14;38.72
80781;BME280;70341;56.408;10.874;2024-03-06T03:24:51;102587.50;;;19.13;38.66
80781;BME280;70341;56.408;10.874;2024-03-06T03:27:21;102587.52;;;19.13;38.73
80781;BME280;70341;56.408;10.874;2024-03-06T03:29:52;102592.23;;;19.12;38.73
80781;BME280;70341;56.408;10.874;2024-03-06T03:32:21;102594.43;;;19.12;38.89
80781;BME280;70341;56.408;10.874;2024-03-06T03:34:53;102592.12;;;19.11;38.83
80781;BME280;70341;56.408;10.874;2024-03-06T03:37:23;102593.03;;;19.11;38.78
80781;BME280;70341;56.408;10.874;2024-03-06T03:39:53;102591.41;;;19.11;38.83
80781;BME280;70341;56.408;10.874;2024-03-06T03:42:23;102595.04;;;19.11;38.95
80781;BME280;70341;56.408;10.874;2024-03-06T03:44:53;102590.53;;;19.10;38.95
80781;BME280;70341;56.408;10.874;2024-03-06T03:47:22;102592.14;;;19.10;38.92
80781;BME280;70341;56.408;10.874;2024-03-06T03:49:52;102588.58;;;19.10;38.89
80781;BME280;70341;56.408;10.874;2024-03-06T03:52:38;102587.52;;;19.09;38.92
80781;BME280;70341;56.408;10.874;2024-03-06T03:55:08;102578.88;;;19.09;39.01
80781;BME280;70341;56.408;10.874;2024-03-06T03:57:38;102578.89;;;19.09;38.93
80781;BME280;70341;56.408;10.874;2024-03-06T04:00:09;102576.59;;;19.08;38.94
80781;BME280;70341;56.408;10.874;2024-03-06T04:02:39;102576.42;;;19.08;39.00
80781;BME280;70341;56.408;10.874;2024-03-06T04:05:09;102576.95;;;19.08;38.96
80781;BME280;70341;56.408;10.874;2024-03-06T04:07:38;102580.40;;;19.08;39.06
80781;BME280;70341;56.408;10.874;2024-03-06T04:10:09;102580.38;;;19.08;39.04
80781;BME280;70341;56.408;10.874;2024-03-06T04:12:39;102582.56;;;19.08;39.02
80781;BME280;70341;56.408;10.874;2024-03-06T04:15:09;102585.79;;;19.08;39.07
80781;BME280;70341;56.408;10.874;2024-03-06T04:17:39;102590.81;;;19.08;39.09
80781;BME280;70341;56.408;10.874;2024-03-06T04:20:10;102593.00;;;19.08;39.10
80781;BME280;70341;56.408;10.874;2024-03-06T04:22:42;102591.77;;;19.07;39.29
80781;BME280;70341;56.408;10.874;2024-03-06T04:25:10;102592.66;;;19.07;39.21
80781;BME280;70341;56.408;10.874;2024-03-06T04:27:41;102593.23;;;19.07;39.19
80781;BME280;70341;56.408;10.874;2024-03-06T04:30:10;102594.47;;;19.07;39.26
80781;BME280;70341;56.408;10.874;2024-03-06T04:32:42;102593.58;;;19.07;39.20
80781;BME280;70341;56.408;10.874;2024-03-06T04:35:11;102596.65;;;19.07;39.30
80781;BME280;70341;56.408;10.874;2024-03-06T04:37:41;102597.20;;;19.07;39.26
80781;BME280;70341;56.408;10.874;2024-03-06T04:40:12;102603.33;;;19.07;39.35
80781;BME280;70341;56.408;10.874;2024-03-06T04:42:48;102600.98;;;19.07;39.29
80781;BME280;70341;56.408;10.874;2024-03-06T04:45:19;102598.65;;;19.07;39.25
80781;BME280;70341;56.408;10.874;2024-03-06T04:47:50;102597.41;;;19.06;39.22
80781;BME280;70341;56.408;10.874;2024-03-06T04:50:21;102596.50;;;19.06;39.26
80781;BME280;70341;56.408;10.874;2024-03-06T04:52:49;102599.02;;;19.06;39.38
80781;BME280;70341;56.408;10.874;2024-03-06T04:55:20;102597.26;;;19.06;39.17
80781;BME280;70341;56.408;10.874;2024-03-06T04:57:52;102599.21;;;19.06;39.33
80781;BME280;70341;56.408;10.874;2024-03-06T05:00:24;102601.61;;;19.05;39.26
80781;BME280;70341;56.408;10.874;2024-03-06T05:02:53;102597.88;;;19.04;39.24
80781;BME280;70341;56.408;10.874;2024-03-06T05:05:41;102602.08;;;19.03;39.15
80781;BME280;70341;56.408;10.874;2024-03-06T05:08:29;102604.30;;;19.01;39.26
80781;BME280;70341;56.408;10.874;2024-03-06T05:11:18;102608.48;;;19.00;39.23
80781;BME280;70341;56.408;10.874;2024-03-06T05:14:06;102609.59;;;18.99;39.18
80781;BME280;70341;56.408;10.874;2024-03-06T05:16:55;102615.27;;;18.98;39.30
80781;BME280;70341;56.408;10.874;2024-03-06T05:19:44;102619.64;;;18.97;39.20
80781;BME280;70341;56.408;10.874;2024-03-06T05:22:31;102621.11;;;18.96;39.14
80781;BME280;70341;56.408;10.874;2024-03-06T05:25:20;102625.15;;;18.95;39.56
80781;BME280;70341;56.408;10.874;2024-03-06T05:28:07;102628.23;;;18.94;39.48
80781;BME280;70341;56.408;10.874;2024-03-06T05:30:54;102631.15;;;18.93;39.47
80781;BME280;70341;56.408;10.874;2024-03-06T05:33:45;102627.19;;;18.93;39.62
80781;BME280;70341;56.408;10.874;2024-03-06T05:36:34;102637.84;;;18.93;39.70
80781;BME280;70341;56.408;10.874;2024-03-06T05:39:22;102643.59;;;18.93;39.54
80781;BME280;70341;56.408;10.874;2024-03-06T05:42:09;102643.08;;;18.92;39.63
80781;BME280;70341;56.408;10.874;2024-03-06T05:45:00;102648.30;;;18.93;39.64
80781;BME280;70341;56.408;10.874;2024-03-06T05:47:48;102644.00;;;18.92;39.67
80781;BME280;70341;56.408;10.874;2024-03-06T05:50:35;102646.31;;;18.93;39.80
80781;BME280;70341;56.408;10.874;2024-03-06T05:53:23;102651.20;;;18.92;39.68
80781;BME280;70341;56.408;10.874;2024-03-06T05:56:11;102656.77;;;18.93;39.74
80781;BME280;70341;56.408;10.874;2024-03-06T05:59:00;102658.59;;;18.92;39.79
80781;BME280;70341;56.408;10.874;2024-03-06T06:01:29;102666.15;;;18.92;39.57
80781;BME280;70341;56.408;10.874;2024-03-06T06:04:01;102668.12;;;18.93;39.63
80781;BME280;70341;56.408;10.874;2024-03-06T06:06:36;102668.30;;;18.93;39.72
80781;BME280;70341;56.408;10.874;2024-03-06T06:09:07;102671.86;;;18.93;39.67
80781;BME280;70341;56.408;10.874;2024-03-06T06:11:38;102677.10;;;18.93;39.78
80781;BME280;70341;56.408;10.874;2024-03-06T06:14:07;102678.58;;;18.93;39.80
80781;BME280;70341;56.408;10.874;2024-03-06T06:16:39;102683.98;;;18.92;39.75
80781;BME280;70341;56.408;10.874;2024-03-06T06:19:08;102687.98;;;18.92;39.79
80781;BME280;70341;56.408;10.874;2024-03-06T06:21:39;102692.89;;;18.91;39.75
80781;BME280;70341;56.408;10.874;2024-03-06T06:24:08;102694.00;;;18.90;39.75
80781;BME280;70341;56.408;10.874;2024-03-06T06:26:38;102697.83;;;18.89;39.73
80781;BME280;70341;56.408;10.874;2024-03-06T06:29:06;102697.82;;;18.89;39.76
80781;BME280;70341;56.408;10.874;2024-03-06T06:31:36;102700.38;;;18.88;39.80
80781;BME280;70341;56.408;10.874;2024-03-06T06:34:05;102703.27;;;18.88;39.82
80781;BME280;70341;56.408;10.874;2024-03-06T06:36:36;102702.58;;;18.87;39.76
80781;BME280;70341;56.408;10.874;2024-03-06T06:39:05;102706.76;;;18.86;39.78
80781;BME280;70341;56.408;10.874;2024-03-06T06:41:34;102712.71;;;18.86;39.86
80781;BME280;70341;56.408;10.874;2024-03-06T06:44:03;102712.37;;;18.85;39.84
80781;BME280;70341;56.408;10.874;2024-03-06T06:46:33;102716.16;;;18.85;39.73
80781;BME280;70341;56.408;10.874;2024-03-06T06:49:03;102715.81;;;18.85;39.84
80781;BME280;70341;56.408;10.874;2024-03-06T06:51:33;102727.39;;;18.84;39.91
80781;BME280;70341;56.408;10.874;2024-03-06T06:54:02;102728.31;;;18.83;39.85
80781;BME280;70341;56.408;10.874;2024-03-06T06:56:34;102729.23;;;18.83;39.92
80781;BME280;70341;56.408;10.874;2024-03-06T06:59:03;102737.55;;;18.82;39.77
80781;BME280;70341;56.408;10.874;2024-03-06T07:01:34;102741.55;;;18.81;39.91
80781;BME280;70341;56.408;10.874;2024-03-06T07:04:04;102744.77;;;18.82;39.92
80781;BME280;70341;56.408;10.874;2024-03-06T07:06:34;102749.45;;;18.82;39.99
80781;BME280;70341;56.408;10.874;2024-03-06T07:09:02;102759.20;;;18.81;39.94
80781;BME280;70341;56.408;10.874;2024-03-06T07:11:33;102758.88;;;18.81;39.87
80781;BME280;70341;56.408;10.874;2024-03-06T07:14:03;102762.83;;;18.81;39.93
80781;BME280;70341;56.408;10.874;2024-03-06T07:16:33;102764.52;;;18.80;40.07
80781;BME280;70341;56.408;10.874;2024-03-06T07:19:02;102766.83;;;18.80;39.91
80781;BME280;70341;56.408;10.874;2024-03-06T07:21:33;102772.08;;;18.79;39.96
80781;BME280;70341;56.408;10.874;2024-03-06T07:24:05;102773.34;;;18.79;39.98
80781;BME280;70341;56.408;10.874;2024-03-06T07:26:36;102776.77;;;18.80;39.90
80781;BME280;70341;56.408;10.874;2024-03-06T07:29:04;102779.81;;;18.80;39.99
80781;BME280;70341;56.408;10.874;2024-03-06T07:31:35;102781.98;;;18.80;39.95
80781;BME280;70341;56.408;10.874;2024-03-06T07:34:04;102780.36;;;18.80;39.98
80781;BME280;70341;56.408;10.874;2024-03-06T07:36:34;102782.89;;;18.80;40.10
80781;BME280;70341;56.408;10.874;2024-03-06T07:39:04;102785.57;;;18.80;39.90
80781;BME280;70341;56.408;10.874;2024-03-06T07:41:34;102787.19;;;18.80;39.99
80781;BME280;70341;56.408;10.874;2024-03-06T07:44:03;102785.73;;;18.80;39.91
80781;BME280;70341;56.408;10.874;2024-03-06T07:46:35;102791.12;;;18.81;39.98
80781;BME280;70341;56.408;10.874;2024-03-06T07:49:04;102791.31;;;18.80;39.97
80781;BME280;70341;56.408;10.874;2024-03-06T07:51:35;102794.19;;;18.81;39.96
80781;BME280;70341;56.408;10.874;2024-03-06T07:54:04;102794.57;;;18.80;40.08
80781;BME280;70341;56.408;10.874;2024-03-06T07:56:33;102795.47;;;18.80;40.02
80781;BME280;70341;56.408;10.874;2024-03-06T07:59:01;102795.84;;;18.80;39.92
80781;BME280;70341;56.408;10.874;2024-03-06T08:01:31;102801.62;;;18.80;39.96
80781;BME280;70341;56.408;10.874;2024-03-06T08:03:58;102804.30;;;18.80;39.98
80781;BME280;70341;56.408;10.874;2024-03-06T08:06:29;102808.83;;;18.80;39.91
80781;BME280;70341;56.408;10.874;2024-03-06T08:08:59;102811.16;;;18.80;39.97
80781;BME280;70341;56.408;10.874;2024-03-06T08:11:30;102814.77;;;18.80;39.96
80781;BME280;70341;56.408;10.874;2024-03-06T08:13:59;102823.96;;;18.79;39.94
80781;BME280;70341;56.408;10.874;2024-03-06T08:16:29;102827.38;;;18.79;40.05
80781;BME280;70341;56.408;10.874;2024-03-06T08:18:59;102826.12;;;18.80;40.04
80781;BME280;70341;56.408;10.874;2024-03-06T08:21:28;102834.05;;;18.80;40.11
80781;BME280;70341;56.408;10.874;2024-03-06T08:23:56;102837.64;;;18.80;40.03
80781;BME280;70341;56.408;10.874;2024-03-06T08:26:24;102838.01;;;18.80;40.08
80781;BME280;70341;56.408;10.874;2024-03-06T08:28:55;102844.31;;;18.80;40.08
80781;BME280;70341;56.408;10.874;2024-03-06T08:31:23;102844.88;;;18.79;40.08
80781;BME280;70341;56.408;10.874;2024-03-06T08:33:52;102840.70;;;18.80;40.00
80781;BME280;70341;56.408;10.874;2024-03-06T08:36:20;102846.13;;;18.79;40.10
80781;BME280;70341;56.408;10.874;2024-03-06T08:38:48;102845.08;;;18.79;40.07
80781;BME280;70341;56.408;10.874;2024-03-06T08:41:17;102848.52;;;18.78;39.96
80781;BME280;70341;56.408;10.874;2024-03-06T08:43:45;102848.15;;;18.78;40.08
80781;BME280;70341;56.408;10.874;2024-03-06T08:46:12;102854.80;;;18.78;40.11
80781;BME280;70341;56.408;10.874;2024-03-06T08:48:43;102853.77;;;18.78;40.01
80781;BME280;70341;56.408;10.874;2024-03-06T08:51:12;102861.85;;;18.78;40.17
80781;BME280;70341;56.408;10.874;2024-03-06T08:53:41;102861.67;;;18.78;40.12
80781;BME280;70341;56.408;10.874;2024-03-06T08:56:10;102863.48;;;18.78;40.06
80781;BME280;70341;56.408;10.874;2024-03-06T08:58:40;102869.04;;;18.78;40.01
80781;BME280;70341;56.408;10.874;2024-03-06T09:01:07;102870.67;;;18.78;40.00
80781;BME280;70341;56.408;10.874;2024-03-06T09:03:39;102872.63;;;18.79;40.16
80781;BME280;70341;56.408;10.874;2024-03-06T09:06:06;102874.61;;;18.79;40.06
80781;BME280;70341;56.408;10.874;2024-03-06T09:08:36;102878.21;;;18.79;40.15
80781;BME280;70341;56.408;10.874;2024-03-06T09:11:03;102878.05;;;18.78;40.14
80781;BME280;70341;56.408;10.874;2024-03-06T09:13:31;102882.75;;;18.78;40.22
80781;BME280;70341;56.408;10.874;2024-03-06T09:16:00;102881.67;;;18.78;40.16
80781;BME280;70341;56.408;10.874;2024-03-06T09:18:27;102886.35;;;18.78;40.17
80781;BME280;70341;56.408;10.874;2024-03-06T09:20:58;102887.84;;;18.77;40.11
80781;BME280;70341;56.408;10.874;2024-03-06T09:23:27;102888.92;;;18.77;40.09
80781;BME280;70341;56.408;10.874;2024-03-06T09:25:57;102895.60;;;18.77;40.20
80781;BME280;70341;56.408;10.874;2024-03-06T09:28:25;102895.79;;;18.76;40.24
80781;BME280;70341;56.408;10.874;2024-03-06T09:30:52;102892.56;;;18.76;40.16
80781;BME280;70341;56.408;10.874;2024-03-06T09:33:21;102899.38;;;18.77;40.27
80781;BME280;70341;56.408;10.874;2024-03-06T09:35:51;102899.57;;;18.76;40.25
80781;BME280;70341;56.408;10.874;2024-03-06T09:38:20;102898.67;;;18.76;40.19
80781;BME280;70341;56.408;10.874;2024-03-06T09:40:48;102905.70;;;18.76;40.23
80781;BME280;70341;56.408;10.874;2024-03-06T09:43:18;102909.84;;;18.77;40.24
80781;BME280;70341;56.408;10.874;2024-03-06T09:45:50;102909.83;;;18.77;40.18
80781;BME280;70341;56.408;10.874;2024-03-06T09:48:21;102909.67;;;18.76;40.30
80781;BME280;70341;56.408;10.874;2024-03-06T09:50:51;102920.45;;;18.77;40.19
80781;BME280;70341;56.408;10.874;2024-03-06T09:53:24;102918.48;;;18.76;40.23
80781;BME280;70341;56.408;10.874;2024-03-06T09:55:52;102921.19;;;18.76;40.22
80781;BME280;70341;56.408;10.874;2024-03-06T09:58:23;102920.98;;;18.77;40.26
80781;BME280;70341;56.408;10.874;2024-03-06T10:00:53;102924.40;;;18.77;40.15
80781;BME280;70341;56.408;10.874;2024-03-06T10:03:23;102924.20;;;18.78;40.25
80781;BME280;70341;56.408;10.874;2024-03-06T10:05:51;102928.13;;;18.78;40.23
80781;BME280;70341;56.408;10.874;2024-03-06T10:08:22;102929.36;;;18.79;40.16
80781;BME280;70341;56.408;10.874;2024-03-06T10:10:52;102930.60;;;18.79;40.18
80781;BME280;70341;56.408;10.874;2024-03-06T10:13:25;102928.59;;;18.80;40.25
80781;BME280;70341;56.408;10.874;2024-03-06T10:16:02;102934.70;;;18.80;40.07
80781;BME280;70341;56.408;10.874;2024-03-06T10:18:34;102938.09;;;18.81;40.11
80781;BME280;70341;56.408;10.874;2024-03-06T10:21:02;102942.56;;;18.82;40.15
80781;BME280;70341;56.408;10.874;2024-03-06T10:23:32;102948.48;;;18.82;40.12
80781;BME280;70341;56.408;10.874;2024-03-06T10:25:59;102946.85;;;18.83;40.04
80781;BME280;70341;56.408;10.874;2024-03-06T10:28:32;102952.39;;;18.84;40.18
80781;BME280;70341;56.408;10.874;2024-03-06T10:31:04;102950.38;;;18.84;40.03
80781;BME280;70341;56.408;10.874;2024-03-06T10:33:34;102956.30;;;18.85;40.09
80781;BME280;70341;56.408;10.874;2024-03-06T10:36:02;102951.60;;;18.85;40.15
80781;BME280;70341;56.408;10.874;2024-03-06T10:38:36;102956.44;;;18.86;39.96
80781;BME280;70341;56.408;10.874;2024-03-06T10:41:14;102955.86;;;18.87;40.01
80781;BME280;70341;56.408;10.874;2024-03-06T10:43:47;102955.32;;;18.88;39.96
80781;BME280;70341;56.408;10.874;2024-03-06T10:46:20;102955.84;;;18.88;40.01
80781;BME280;70341;56.408;10.874;2024-03-06T10:48:49;102954.20;;;18.89;39.94
80781;BME280;70341;56.408;10.874;2024-03-06T10:51:20;102956.13;;;18.90;39.81
80781;BME280;70341;56.408;10.874;2024-03-06T10:53:49;102956.81;;;18.91;39.84
80781;BME280;70341;56.408;10.874;2024-03-06T10:56:18;102956.95;;;18.92;39.89
80781;BME280;70341;56.408;10.874;2024-03-06T10:58:50;102958.88;;;18.93;40.04
80781;BME280;70341;56.408;10.874;2024-03-06T11:01:18;102958.45;;;18.95;39.93
80781;BME280;70341;56.408;10.874;2024-03-06T11:03:46;102954.98;;;18.96;39.77
80781;BME280;70341;56.408;10.874;2024-03-06T11:06:14;102959.42;;;18.98;39.86
80781;BME280;70341;56.408;10.874;2024-03-06T11:08:43;102955.60;;;18.98;39.84
80781;BME280;70341;56.408;10.874;2024-03-06T11:11:23;102956.45;;;19.00;39.68
80781;BME280;70341;56.408;10.874;2024-03-06T11:14:00;102963.62;;;19.01;39.75
80781;BME280;70341;56.408;10.874;2024-03-06T11:16:31;102958.17;;;19.02;39.69
80781;BME280;70341;56.408;10.874;2024-03-06T11:19:07;102952.22;;;19.02;39.66
80781;BME280;70341;56.408;10.874;2024-03-06T11:21:46;102959.36;;;19.04;39.80
80781;BME280;70341;56.408;10.874;2024-03-06T11:24:21;102960.39;;;19.05;39.78
80781;BME280;70341;56.408;10.874;2024-03-06T11:27:04;102963.73;;;19.07;39.65
80781;BME280;70341;56.408;10.874;2024-03-06T11:30:11;102963.34;;;19.08;39.69
80781;BME280;70341;56.408;10.874;2024-03-06T11:33:00;102964.33;;;19.10;39.67
80781;BME280;70341;56.408;10.874;2024-03-06T11:35:31;102966.09;;;19.11;39.57
80781;BME280;70341;56.408;10.874;2024-03-06T11:38:01;102968.94;;;19.11;39.61
80781;BME280;70341;56.408;10.874;2024-03-06T11:40:30;102973.04;;;19.13;39.57
80781;BME280;70341;56.408;10.874;2024-03-06T11:43:27;102975.54;;;19.13;39.61
80781;BME280;70341;56.408;10.874;2024-03-06T11:46:10;102982.38;;;19.14;39.58
80781;BME280;70341;56.408;10.874;2024-03-06T11:48:41;102980.02;;;19.14;39.60
80781;BME280;70341;56.408;10.874;2024-03-06T11:51:09;102978.03;;;19.14;39.52
80781;BME280;70341;56.408;10.874;2024-03-06T11:53:37;102982.20;;;19.14;39.45
80781;BME280;70341;56.408;10.874;2024-03-06T11:56:08;102980.39;;;19.14;39.58
80781;BME280;70341;56.408;10.874;2024-03-06T11:58:35;102982.39;;;19.13;39.61
80781;BME280;70341;56.408;10.874;2024-03-06T12:01:03;102981.84;;;19.13;39.48
80781;BME280;70341;56.408;10.874;2024-03-06T12:03:33;102986.59;;;19.12;39.46
80781;BME280;70341;56.408;10.874;2024-03-06T12:06:01;102985.30;;;19.12;39.53
80781;BME280;70341;56.408;10.874;2024-03-06T12:08:28;102983.52;;;19.12;39.35
80781;BME280;70341;56.408;10.874;2024-03-06T12:10:57;102986.41;;;19.12;39.47
80781;BME280;70341;56.408;10.874;2024-03-06T12:13:25;102989.11;;;19.12;39.52
80781;BME280;70341;56.408;10.874;2024-03-06T12:15:53;102988.06;;;19.11;39.56
80781;BME280;70341;56.408;10.874;2024-03-06T12:18:24;102990.95;;;19.11;39.49
80781;BME280;70341;56.408;10.874;2024-03-06T12:20:52;102990.75;;;19.11;39.46
80781;BME280;70341;56.408;10.874;2024-03-06T12:23:24;102993.10;;;19.11;39.62
80781;BME280;70341;56.408;10.874;2024-03-06T12:26:09;102994.91;;;19.11;39.56
80781;BME280;70341;56.408;10.874;2024-03-06T12:28:40;102996.02;;;19.10;39.43
80781;BME280;70341;56.408;10.874;2024-03-06T12:31:07;102996.05;;;19.10;39.57
80781;BME280;70341;56.408;10.874;2024-03-06T12:33:35;103001.65;;;19.09;39.58
80781;BME280;70341;56.408;10.874;2024-03-06T12:36:08;103000.05;;;19.09;39.50
80781;BME280;70341;56.408;10.874;2024-03-06T12:38:37;103001.48;;;19.09;39.48
80781;BME280;70341;56.408;10.874;2024-03-06T12:41:06;103002.05;;;19.09;39.60
80781;BME280;70341;56.408;10.874;2024-03-06T12:43:35;103004.41;;;19.08;39.69
80781;BME280;70341;56.408;10.874;2024-03-06T12:46:04;103004.22;;;19.08;39.60
80781;BME280;70341;56.408;10.874;2024-03-06T12:48:32;103002.23;;;19.08;39.73
80781;BME280;70341;56.408;10.874;2024-03-06T12:50:59;103004.20;;;19.09;39.57
80781;BME280;70341;56.408;10.874;2024-03-06T12:53:30;103006.05;;;19.08;39.72
80781;BME280;70341;56.408;10.874;2024-03-06T12:55:59;103003.14;;;19.08;39.67
80781;BME280;70341;56.408;10.874;2024-03-06T12:58:29;103005.34;;;19.07;39.61
80781;BME280;70341;56.408;10.874;2024-03-06T13:00:59;102999.77;;;19.07;39.63
80781;BME280;70341;56.408;10.874;2024-03-06T13:03:28;103003.93;;;19.07;39.64